sensor_id;sensor_type;location;lat;lon;timestamp;P1;durP1;ratioP1;P2;durP2;ratioP2
8737;SDS011;4405;49.272;8.590;2023-11-19T00:00:05;1.70;;;1.07;;
8737;SDS011;4405;49.272;8.590;2023-11-19T00:02:36;1.43;;;1.33;;
8737;SDS011;4405;49.272;8.590;2023-11-19T00:05:02;2.73;;;1.40;;
8737;SDS011;4405;49.272;8.590;2023-11-19T00:07:28;0.97;;;0.97;;
8737;SDS011;4405;49.272;8.590;2023-11-19T00:09:56;1.40;;;1.27;;
8737;SDS011;4405;49.272;8.590;2023-11-19T00:12:22;1.03;;;1.03;;
8737;SDS011;4405;49.272;8.590;2023-11-19T00:14:49;1.23;;;1.20;;
8737;SDS011;4405;49.272;8.590;2023-11-19T00:17:15;1.40;;;1.00;;
8737;SDS011;4405;49.272;8.590;2023-11-19T00:19:42;1.57;;;1.10;;
8737;SDS011;4405;49.272;8.590;2023-11-19T00:22:09;1.03;;;0.93;;
8737;SDS011;4405;49.272;8.590;2023-11-19T00:24:35;1.20;;;1.20;;
8737;SDS011;4405;49.272;8.590;2023-11-19T00:27:03;1.03;;;1.03;;
8737;SDS011;4405;49.272;8.590;2023-11-19T00:29:29;0.93;;;0.93;;
8737;SDS011;4405;49.272;8.590;2023-11-19T00:31:55;1.17;;;1.17;;
8737;SDS011;4405;49.272;8.590;2023-11-19T00:34:22;1.00;;;1.00;;
8737;SDS011;4405;49.272;8.590;2023-11-19T00:36:48;0.90;;;0.90;;
8737;SDS011;4405;49.272;8.590;2023-11-19T00:39:14;0.97;;;0.97;;
8737;SDS011;4405;49.272;8.590;2023-11-19T00:41:41;1.80;;;1.20;;
8737;SDS011;4405;49.272;8.590;2023-11-19T00:44:08;2.87;;;1.00;;
8737;SDS011;4405;49.272;8.590;2023-11-19T00:46:35;2.60;;;1.00;;
8737;SDS011;4405;49.272;8.590;2023-11-19T00:49:01;1.50;;;1.07;;
8737;SDS011;4405;49.272;8.590;2023-11-19T00:51:28;1.93;;;1.00;;
8737;SDS011;4405;49.272;8.590;2023-11-19T00:53:56;1.03;;;1.03;;
8737;SDS011;4405;49.272;8.590;2023-11-19T00:56:22;0.83;;;0.83;;
8737;SDS011;4405;49.272;8.590;2023-11-19T00:58:49;1.07;;;0.77;;
8737;SDS011;4405;49.272;8.590;2023-11-19T01:01:16;1.30;;;0.90;;
8737;SDS011;4405;49.272;8.590;2023-11-19T01:03:43;1.37;;;0.93;;
8737;SDS011;4405;49.272;8.590;2023-11-19T01:06:09;0.90;;;0.90;;
8737;SDS011;4405;49.272;8.590;2023-11-19T01:08:35;0.60;;;0.60;;
8737;SDS011;4405;49.272;8.590;2023-11-19T01:11:02;1.00;;;1.00;;
8737;SDS011;4405;49.272;8.590;2023-11-19T01:13:29;0.80;;;0.80;;
8737;SDS011;4405;49.272;8.590;2023-11-19T01:15:55;0.70;;;0.70;;
8737;SDS011;4405;49.272;8.590;2023-11-19T01:18:23;1.00;;;1.00;;
8737;SDS011;4405;49.272;8.590;2023-11-19T01:20:49;1.00;;;0.90;;
8737;SDS011;4405;49.272;8.590;2023-11-19T01:23:16;0.70;;;0.70;;
8737;SDS011;4405;49.272;8.590;2023-11-19T01:25:42;0.83;;;0.83;;
8737;SDS011;4405;49.272;8.590;2023-11-19T01:28:08;0.80;;;0.80;;
8737;SDS011;4405;49.272;8.590;2023-11-19T01:30:35;0.80;;;0.80;;
8737;SDS011;4405;49.272;8.590;2023-11-19T01:33:01;0.80;;;0.80;;
8737;SDS011;4405;49.272;8.590;2023-11-19T01:35:29;0.77;;;0.73;;
8737;SDS011;4405;49.272;8.590;2023-11-19T01:37:55;0.70;;;0.70;;
8737;SDS011;4405;49.272;8.590;2023-11-19T01:40:22;1.17;;;0.80;;
8737;SDS011;4405;49.272;8.590;2023-11-19T01:42:48;0.80;;;0.80;;
8737;SDS011;4405;49.272;8.590;2023-11-19T01:45:19;0.90;;;0.90;;
8737;SDS011;4405;49.272;8.590;2023-11-19T01:47:47;1.40;;;0.97;;
8737;SDS011;4405;49.272;8.590;2023-11-19T01:50:14;0.87;;;0.87;;
8737;SDS011;4405;49.272;8.590;2023-11-19T01:52:41;0.80;;;0.80;;
8737;SDS011;4405;49.272;8.590;2023-11-19T01:55:08;2.10;;;0.80;;
8737;SDS011;4405;49.272;8.590;2023-11-19T01:57:36;0.87;;;0.87;;
8737;SDS011;4405;49.272;8.590;2023-11-19T02:00:06;1.07;;;1.00;;
8737;SDS011;4405;49.272;8.590;2023-11-19T02:02:36;1.10;;;1.10;;
8737;SDS011;4405;49.272;8.590;2023-11-19T02:05:03;1.40;;;0.80;;
8737;SDS011;4405;49.272;8.590;2023-11-19T02:07:29;1.00;;;1.00;;
8737;SDS011;4405;49.272;8.590;2023-11-19T02:09:57;0.80;;;0.80;;
8737;SDS011;4405;49.272;8.590;2023-11-19T02:12:25;0.87;;;0.87;;
8737;SDS011;4405;49.272;8.590;2023-11-19T02:14:53;0.70;;;0.70;;
8737;SDS011;4405;49.272;8.590;2023-11-19T02:17:25;0.77;;;0.77;;
8737;SDS011;4405;49.272;8.590;2023-11-19T02:19:52;0.80;;;0.80;;
8737;SDS011;4405;49.272;8.590;2023-11-19T02:22:18;0.90;;;0.90;;
8737;SDS011;4405;49.272;8.590;2023-11-19T02:24:45;0.73;;;0.73;;
8737;SDS011;4405;49.272;8.590;2023-11-19T02:27:15;1.00;;;1.00;;
8737;SDS011;4405;49.272;8.590;2023-11-19T02:29:43;1.00;;;1.00;;
8737;SDS011;4405;49.272;8.590;2023-11-19T02:32:09;0.97;;;0.80;;
8737;SDS011;4405;49.272;8.590;2023-11-19T02:34:38;1.17;;;1.00;;
8737;SDS011;4405;49.272;8.590;2023-11-19T02:37:05;1.00;;;1.00;;
8737;SDS011;4405;49.272;8.590;2023-11-19T02:39:31;1.00;;;1.00;;
8737;SDS011;4405;49.272;8.590;2023-11-19T02:41:58;1.10;;;1.00;;
8737;SDS011;4405;49.272;8.590;2023-11-19T02:44:25;1.83;;;0.90;;
8737;SDS011;4405;49.272;8.590;2023-11-19T02:46:54;1.00;;;1.00;;
8737;SDS011;4405;49.272;8.590;2023-11-19T02:49:21;1.10;;;1.10;;
8737;SDS011;4405;49.272;8.590;2023-11-19T02:51:49;0.80;;;0.80;;
8737;SDS011;4405;49.272;8.590;2023-11-19T02:54:15;1.00;;;1.00;;
8737;SDS011;4405;49.272;8.590;2023-11-19T02:56:42;1.10;;;1.00;;
8737;SDS011;4405;49.272;8.590;2023-11-19T02:59:08;1.20;;;1.10;;
8737;SDS011;4405;49.272;8.590;2023-11-19T03:01:43;0.90;;;0.90;;
8737;SDS011;4405;49.272;8.590;2023-11-19T03:04:16;1.00;;;1.00;;
8737;SDS011;4405;49.272;8.590;2023-11-19T03:06:45;0.90;;;0.90;;
8737;SDS011;4405;49.272;8.590;2023-11-19T03:09:11;2.27;;;1.00;;
8737;SDS011;4405;49.272;8.590;2023-11-19T03:11:37;2.00;;;1.13;;
8737;SDS011;4405;49.272;8.590;2023-11-19T03:14:04;0.97;;;0.97;;
8737;SDS011;4405;49.272;8.590;2023-11-19T03:16:31;1.00;;;1.00;;
8737;SDS011;4405;49.272;8.590;2023-11-19T03:18:57;1.10;;;1.10;;
8737;SDS011;4405;49.272;8.590;2023-11-19T03:21:28;3.00;;;1.00;;
8737;SDS011;4405;49.272;8.590;2023-11-19T03:23:54;1.10;;;1.00;;
8737;SDS011;4405;49.272;8.590;2023-11-19T03:26:21;0.90;;;0.90;;
8737;SDS011;4405;49.272;8.590;2023-11-19T03:28:48;1.10;;;1.10;;
8737;SDS011;4405;49.272;8.590;2023-11-19T03:31:14;1.10;;;1.10;;
8737;SDS011;4405;49.272;8.590;2023-11-19T03:33:40;0.93;;;0.93;;
8737;SDS011;4405;49.272;8.590;2023-11-19T03:36:07;1.13;;;1.00;;
8737;SDS011;4405;49.272;8.590;2023-11-19T03:38:36;1.53;;;1.07;;
8737;SDS011;4405;49.272;8.590;2023-11-19T03:41:09;1.20;;;1.20;;
8737;SDS011;4405;49.272;8.590;2023-11-19T03:43:35;1.67;;;1.13;;
8737;SDS011;4405;49.272;8.590;2023-11-19T03:46:02;1.20;;;1.10;;
8737;SDS011;4405;49.272;8.590;2023-11-19T03:48:30;1.00;;;1.00;;
8737;SDS011;4405;49.272;8.590;2023-11-19T03:50:56;1.10;;;1.10;;
8737;SDS011;4405;49.272;8.590;2023-11-19T03:53:23;1.80;;;1.17;;
8737;SDS011;4405;49.272;8.590;2023-11-19T03:55:51;1.13;;;0.80;;
8737;SDS011;4405;49.272;8.590;2023-11-19T03:58:17;1.07;;;1.07;;
8737;SDS011;4405;49.272;8.590;2023-11-19T04:00:44;2.10;;;1.07;;
8737;SDS011;4405;49.272;8.590;2023-11-19T04:03:10;1.00;;;1.00;;
8737;SDS011;4405;49.272;8.590;2023-11-19T04:05:36;1.00;;;1.00;;
8737;SDS011;4405;49.272;8.590;2023-11-19T04:08:03;1.03;;;1.00;;
8737;SDS011;4405;49.272;8.590;2023-11-19T04:10:30;0.83;;;0.83;;
8737;SDS011;4405;49.272;8.590;2023-11-19T04:12:58;1.00;;;1.00;;
8737;SDS011;4405;49.272;8.590;2023-11-19T04:15:24;1.10;;;0.97;;
8737;SDS011;4405;49.272;8.590;2023-11-19T04:17:50;1.70;;;1.00;;
8737;SDS011;4405;49.272;8.590;2023-11-19T04:20:17;1.13;;;1.13;;
8737;SDS011;4405;49.272;8.590;2023-11-19T04:22:43;0.90;;;0.90;;
8737;SDS011;4405;49.272;8.590;2023-11-19T04:25:09;2.20;;;1.00;;
8737;SDS011;4405;49.272;8.590;2023-11-19T04:27:36;1.37;;;1.27;;
8737;SDS011;4405;49.272;8.590;2023-11-19T04:30:04;1.80;;;1.20;;
8737;SDS011;4405;49.272;8.590;2023-11-19T04:32:35;1.10;;;1.00;;
8737;SDS011;4405;49.272;8.590;2023-11-19T04:35:02;1.10;;;1.10;;
8737;SDS011;4405;49.272;8.590;2023-11-19T04:37:28;1.27;;;1.17;;
8737;SDS011;4405;49.272;8.590;2023-11-19T04:39:55;1.17;;;1.17;;
8737;SDS011;4405;49.272;8.590;2023-11-19T04:42:21;1.20;;;1.20;;
8737;SDS011;4405;49.272;8.590;2023-11-19T04:44:48;1.30;;;1.30;;
8737;SDS011;4405;49.272;8.590;2023-11-19T04:47:15;2.63;;;1.30;;
8737;SDS011;4405;49.272;8.590;2023-11-19T04:49:42;2.57;;;2.13;;
8737;SDS011;4405;49.272;8.590;2023-11-19T04:52:09;1.50;;;1.40;;
8737;SDS011;4405;49.272;8.590;2023-11-19T04:54:40;1.80;;;1.30;;
8737;SDS011;4405;49.272;8.590;2023-11-19T04:57:06;1.63;;;1.40;;
8737;SDS011;4405;49.272;8.590;2023-11-19T04:59:34;1.40;;;1.30;;
8737;SDS011;4405;49.272;8.590;2023-11-19T05:02:01;1.60;;;1.50;;
8737;SDS011;4405;49.272;8.590;2023-11-19T05:04:28;1.83;;;1.40;;
8737;SDS011;4405;49.272;8.590;2023-11-19T05:06:55;2.33;;;1.33;;
8737;SDS011;4405;49.272;8.590;2023-11-19T05:09:21;1.60;;;1.50;;
8737;SDS011;4405;49.272;8.590;2023-11-19T05:11:47;1.50;;;1.50;;
8737;SDS011;4405;49.272;8.590;2023-11-19T05:14:14;1.17;;;1.17;;
8737;SDS011;4405;49.272;8.590;2023-11-19T05:16:41;1.53;;;1.43;;
8737;SDS011;4405;49.272;8.590;2023-11-19T05:19:07;1.83;;;1.50;;
8737;SDS011;4405;49.272;8.590;2023-11-19T05:21:35;1.27;;;1.27;;
8737;SDS011;4405;49.272;8.590;2023-11-19T05:24:02;1.47;;;1.30;;
8737;SDS011;4405;49.272;8.590;2023-11-19T05:26:30;1.30;;;1.30;;
8737;SDS011;4405;49.272;8.590;2023-11-19T05:28:56;1.40;;;1.30;;
8737;SDS011;4405;49.272;8.590;2023-11-19T05:31:23;1.30;;;1.30;;
8737;SDS011;4405;49.272;8.590;2023-11-19T05:33:49;1.40;;;1.30;;
8737;SDS011;4405;49.272;8.590;2023-11-19T05:36:15;3.37;;;1.43;;
8737;SDS011;4405;49.272;8.590;2023-11-19T05:38:43;1.87;;;1.30;;
8737;SDS011;4405;49.272;8.590;2023-11-19T05:41:10;1.87;;;1.40;;
8737;SDS011;4405;49.272;8.590;2023-11-19T05:43:36;1.40;;;1.30;;
8737;SDS011;4405;49.272;8.590;2023-11-19T05:46:05;3.00;;;1.20;;
8737;SDS011;4405;49.272;8.590;2023-11-19T05:48:31;3.43;;;1.00;;
8737;SDS011;4405;49.272;8.590;2023-11-19T05:50:58;3.80;;;1.30;;
8737;SDS011;4405;49.272;8.590;2023-11-19T05:53:25;1.40;;;1.30;;
8737;SDS011;4405;49.272;8.590;2023-11-19T05:55:52;1.30;;;1.20;;
8737;SDS011;4405;49.272;8.590;2023-11-19T05:58:22;1.40;;;1.30;;
8737;SDS011;4405;49.272;8.590;2023-11-19T06:00:49;1.23;;;1.10;;
8737;SDS011;4405;49.272;8.590;2023-11-19T06:03:15;1.67;;;1.00;;
8737;SDS011;4405;49.272;8.590;2023-11-19T06:05:44;1.13;;;1.13;;
8737;SDS011;4405;49.272;8.590;2023-11-19T06:08:10;1.30;;;1.30;;
8737;SDS011;4405;49.272;8.590;2023-11-19T06:10:38;1.70;;;1.00;;
8737;SDS011;4405;49.272;8.590;2023-11-19T06:13:06;1.80;;;0.87;;
8737;SDS011;4405;49.272;8.590;2023-11-19T06:15:35;0.97;;;0.90;;
8737;SDS011;4405;49.272;8.590;2023-11-19T06:18:01;2.23;;;1.10;;
8737;SDS011;4405;49.272;8.590;2023-11-19T06:20:28;1.07;;;1.00;;
8737;SDS011;4405;49.272;8.590;2023-11-19T06:22:55;2.40;;;1.00;;
8737;SDS011;4405;49.272;8.590;2023-11-19T06:25:21;0.80;;;0.80;;
8737;SDS011;4405;49.272;8.590;2023-11-19T06:27:49;0.80;;;0.80;;
8737;SDS011;4405;49.272;8.590;2023-11-19T06:30:17;0.93;;;0.93;;
8737;SDS011;4405;49.272;8.590;2023-11-19T06:32:43;1.10;;;1.10;;
8737;SDS011;4405;49.272;8.590;2023-11-19T06:35:09;0.80;;;0.80;;
8737;SDS011;4405;49.272;8.590;2023-11-19T06:37:37;0.97;;;0.80;;
8737;SDS011;4405;49.272;8.590;2023-11-19T06:40:04;0.90;;;0.90;;
8737;SDS011;4405;49.272;8.590;2023-11-19T06:42:31;0.83;;;0.83;;
8737;SDS011;4405;49.272;8.590;2023-11-19T06:44:57;0.90;;;0.90;;
8737;SDS011;4405;49.272;8.590;2023-11-19T06:47:26;0.93;;;0.90;;
8737;SDS011;4405;49.272;8.590;2023-11-19T06:49:53;0.87;;;0.80;;
8737;SDS011;4405;49.272;8.590;2023-11-19T06:52:19;0.60;;;0.60;;
8737;SDS011;4405;49.272;8.590;2023-11-19T06:54:46;1.00;;;0.60;;
8737;SDS011;4405;49.272;8.590;2023-11-19T06:57:12;0.70;;;0.70;;
8737;SDS011;4405;49.272;8.590;2023-11-19T06:59:38;0.80;;;0.80;;
8737;SDS011;4405;49.272;8.590;2023-11-19T07:02:05;1.13;;;0.73;;
8737;SDS011;4405;49.272;8.590;2023-11-19T07:04:33;0.80;;;0.80;;
8737;SDS011;4405;49.272;8.590;2023-11-19T07:07:00;0.80;;;0.80;;
8737;SDS011;4405;49.272;8.590;2023-11-19T07:09:26;0.77;;;0.73;;
8737;SDS011;4405;49.272;8.590;2023-11-19T07:11:53;2.07;;;0.77;;
8737;SDS011;4405;49.272;8.590;2023-11-19T07:14:19;0.60;;;0.60;;
8737;SDS011;4405;49.272;8.590;2023-11-19T07:16:46;1.27;;;0.90;;
8737;SDS011;4405;49.272;8.590;2023-11-19T07:19:12;1.07;;;0.80;;
8737;SDS011;4405;49.272;8.590;2023-11-19T07:21:42;1.60;;;0.60;;
8737;SDS011;4405;49.272;8.590;2023-11-19T07:24:09;0.90;;;0.90;;
8737;SDS011;4405;49.272;8.590;2023-11-19T07:26:35;0.90;;;0.80;;
8737;SDS011;4405;49.272;8.590;2023-11-19T07:29:02;0.87;;;0.87;;
8737;SDS011;4405;49.272;8.590;2023-11-19T07:31:32;0.70;;;0.70;;
8737;SDS011;4405;49.272;8.590;2023-11-19T07:33:58;0.60;;;0.60;;
8737;SDS011;4405;49.272;8.590;2023-11-19T07:36:25;0.80;;;0.80;;
8737;SDS011;4405;49.272;8.590;2023-11-19T07:38:52;0.73;;;0.73;;
8737;SDS011;4405;49.272;8.590;2023-11-19T07:41:22;0.77;;;0.77;;
8737;SDS011;4405;49.272;8.590;2023-11-19T07:43:50;0.80;;;0.80;;
8737;SDS011;4405;49.272;8.590;2023-11-19T07:46:17;0.80;;;0.70;;
8737;SDS011;4405;49.272;8.590;2023-11-19T07:48:44;0.87;;;0.70;;
8737;SDS011;4405;49.272;8.590;2023-11-19T07:51:12;0.67;;;0.67;;
8737;SDS011;4405;49.272;8.590;2023-11-19T07:53:38;1.60;;;0.60;;
8737;SDS011;4405;49.272;8.590;2023-11-19T07:56:07;0.80;;;0.80;;
8737;SDS011;4405;49.272;8.590;2023-11-19T07:58:34;1.00;;;0.90;;
8737;SDS011;4405;49.272;8.590;2023-11-19T08:01:00;0.80;;;0.80;;
8737;SDS011;4405;49.272;8.590;2023-11-19T08:03:27;0.80;;;0.80;;
8737;SDS011;4405;49.272;8.590;2023-11-19T08:05:54;0.80;;;0.80;;
8737;SDS011;4405;49.272;8.590;2023-11-19T08:08:24;1.53;;;0.90;;
8737;SDS011;4405;49.272;8.590;2023-11-19T08:10:50;0.70;;;0.70;;
8737;SDS011;4405;49.272;8.590;2023-11-19T08:13:19;0.70;;;0.70;;
8737;SDS011;4405;49.272;8.590;2023-11-19T08:15:45;0.97;;;0.90;;
8737;SDS011;4405;49.272;8.590;2023-11-19T08:18:12;1.80;;;0.70;;
8737;SDS011;4405;49.272;8.590;2023-11-19T08:20:38;0.87;;;0.87;;
8737;SDS011;4405;49.272;8.590;2023-11-19T08:23:06;0.90;;;0.90;;
8737;SDS011;4405;49.272;8.590;2023-11-19T08:25:32;0.80;;;0.80;;
8737;SDS011;4405;49.272;8.590;2023-11-19T08:27:59;0.80;;;0.80;;
8737;SDS011;4405;49.272;8.590;2023-11-19T08:30:26;1.00;;;0.80;;
8737;SDS011;4405;49.272;8.590;2023-11-19T08:32:53;1.37;;;0.90;;
8737;SDS011;4405;49.272;8.590;2023-11-19T08:35:19;0.80;;;0.80;;
8737;SDS011;4405;49.272;8.590;2023-11-19T08:37:45;1.70;;;0.80;;
8737;SDS011;4405;49.272;8.590;2023-11-19T08:40:12;0.80;;;0.80;;
8737;SDS011;4405;49.272;8.590;2023-11-19T08:42:39;1.27;;;0.60;;
8737;SDS011;4405;49.272;8.590;2023-11-19T08:45:06;0.50;;;0.50;;
8737;SDS011;4405;49.272;8.590;2023-11-19T08:47:34;1.13;;;0.70;;
8737;SDS011;4405;49.272;8.590;2023-11-19T08:50:01;0.60;;;0.60;;
8737;SDS011;4405;49.272;8.590;2023-11-19T08:52:29;0.90;;;0.83;;
8737;SDS011;4405;49.272;8.590;2023-11-19T08:54:55;0.60;;;0.60;;
8737;SDS011;4405;49.272;8.590;2023-11-19T08:57:22;0.80;;;0.80;;
8737;SDS011;4405;49.272;8.590;2023-11-19T08:59:49;0.80;;;0.80;;
8737;SDS011;4405;49.272;8.590;2023-11-19T09:02:15;0.70;;;0.70;;
8737;SDS011;4405;49.272;8.590;2023-11-19T09:04:44;0.80;;;0.80;;
8737;SDS011;4405;49.272;8.590;2023-11-19T09:07:11;0.70;;;0.70;;
8737;SDS011;4405;49.272;8.590;2023-11-19T09:09:37;1.60;;;0.80;;
8737;SDS011;4405;49.272;8.590;2023-11-19T09:12:04;1.27;;;0.60;;
8737;SDS011;4405;49.272;8.590;2023-11-19T09:14:31;0.70;;;0.70;;
8737;SDS011;4405;49.272;8.590;2023-11-19T09:16:57;0.70;;;0.70;;
8737;SDS011;4405;49.272;8.590;2023-11-19T09:19:24;0.80;;;0.80;;
8737;SDS011;4405;49.272;8.590;2023-11-19T09:21:52;0.90;;;0.90;;
8737;SDS011;4405;49.272;8.590;2023-11-19T09:24:18;0.90;;;0.90;;
8737;SDS011;4405;49.272;8.590;2023-11-19T09:26:45;1.10;;;1.00;;
8737;SDS011;4405;49.272;8.590;2023-11-19T09:29:11;0.80;;;0.80;;
8737;SDS011;4405;49.272;8.590;2023-11-19T09:31:39;1.70;;;0.97;;
8737;SDS011;4405;49.272;8.590;2023-11-19T09:34:05;0.80;;;0.80;;
8737;SDS011;4405;49.272;8.590;2023-11-19T09:36:32;1.47;;;1.00;;
8737;SDS011;4405;49.272;8.590;2023-11-19T09:39:00;1.80;;;1.00;;
8737;SDS011;4405;49.272;8.590;2023-11-19T09:41:27;1.17;;;1.17;;
8737;SDS011;4405;49.272;8.590;2023-11-19T09:43:54;1.20;;;1.20;;
8737;SDS011;4405;49.272;8.590;2023-11-19T09:46:20;0.80;;;0.80;;
8737;SDS011;4405;49.272;8.590;2023-11-19T09:48:49;0.90;;;0.90;;
8737;SDS011;4405;49.272;8.590;2023-11-19T09:51:19;1.17;;;0.90;;
8737;SDS011;4405;49.272;8.590;2023-11-19T09:53:46;3.90;;;0.97;;
8737;SDS011;4405;49.272;8.590;2023-11-19T09:56:13;1.20;;;1.10;;
8737;SDS011;4405;49.272;8.590;2023-11-19T09:58:41;1.00;;;1.00;;
8737;SDS011;4405;49.272;8.590;2023-11-19T10:01:08;2.40;;;0.93;;
8737;SDS011;4405;49.272;8.590;2023-11-19T10:03:37;1.30;;;0.90;;
8737;SDS011;4405;49.272;8.590;2023-11-19T10:06:05;0.80;;;0.80;;
8737;SDS011;4405;49.272;8.590;2023-11-19T10:08:32;0.93;;;0.93;;
8737;SDS011;4405;49.272;8.590;2023-11-19T10:10:59;1.50;;;1.00;;
8737;SDS011;4405;49.272;8.590;2023-11-19T10:13:27;1.00;;;1.00;;
8737;SDS011;4405;49.272;8.590;2023-11-19T10:15:54;1.23;;;1.13;;
8737;SDS011;4405;49.272;8.590;2023-11-19T10:18:24;2.17;;;0.93;;
8737;SDS011;4405;49.272;8.590;2023-11-19T10:20:50;1.27;;;1.00;;
8737;SDS011;4405;49.272;8.590;2023-11-19T10:23:17;1.13;;;1.00;;
8737;SDS011;4405;49.272;8.590;2023-11-19T10:25:43;2.77;;;1.17;;
8737;SDS011;4405;49.272;8.590;2023-11-19T10:28:10;1.00;;;1.00;;
8737;SDS011;4405;49.272;8.590;2023-11-19T10:30:37;1.83;;;1.10;;
8737;SDS011;4405;49.272;8.590;2023-11-19T10:33:04;1.10;;;1.00;;
8737;SDS011;4405;49.272;8.590;2023-11-19T10:35:31;2.13;;;1.00;;
8737;SDS011;4405;49.272;8.590;2023-11-19T10:37:59;0.90;;;0.90;;
8737;SDS011;4405;49.272;8.590;2023-11-19T10:40:26;0.90;;;0.90;;
8737;SDS011;4405;49.272;8.590;2023-11-19T10:43:03;0.90;;;0.90;;
8737;SDS011;4405;49.272;8.590;2023-11-19T10:45:30;1.70;;;1.20;;
8737;SDS011;4405;49.272;8.590;2023-11-19T10:47:58;2.40;;;1.17;;
8737;SDS011;4405;49.272;8.590;2023-11-19T10:50:24;1.77;;;1.10;;
8737;SDS011;4405;49.272;8.590;2023-11-19T10:52:51;0.90;;;0.90;;
8737;SDS011;4405;49.272;8.590;2023-11-19T10:55:19;2.80;;;1.30;;
8737;SDS011;4405;49.272;8.590;2023-11-19T10:57:47;1.77;;;1.00;;
8737;SDS011;4405;49.272;8.590;2023-11-19T11:00:15;1.60;;;0.93;;
8737;SDS011;4405;49.272;8.590;2023-11-19T11:02:45;0.80;;;0.80;;
8737;SDS011;4405;49.272;8.590;2023-11-19T11:05:15;1.13;;;1.00;;
8737;SDS011;4405;49.272;8.590;2023-11-19T11:07:42;1.00;;;1.00;;
8737;SDS011;4405;49.272;8.590;2023-11-19T11:10:10;1.00;;;1.00;;
8737;SDS011;4405;49.272;8.590;2023-11-19T11:12:37;2.00;;;0.77;;
8737;SDS011;4405;49.272;8.590;2023-11-19T11:15:05;0.90;;;0.90;;
8737;SDS011;4405;49.272;8.590;2023-11-19T11:17:32;1.50;;;1.00;;
8737;SDS011;4405;49.272;8.590;2023-11-19T11:19:59;1.23;;;1.13;;
8737;SDS011;4405;49.272;8.590;2023-11-19T11:22:27;1.43;;;1.00;;
8737;SDS011;4405;49.272;8.590;2023-11-19T11:27:51;1.53;;;1.00;;
8737;SDS011;4405;49.272;8.590;2023-11-19T11:30:24;1.17;;;1.07;;
8737;SDS011;4405;49.272;8.590;2023-11-19T11:32:54;1.90;;;1.13;;
8737;SDS011;4405;49.272;8.590;2023-11-19T11:35:30;0.97;;;0.90;;
8737;SDS011;4405;49.272;8.590;2023-11-19T11:38:01;0.90;;;0.90;;
8737;SDS011;4405;49.272;8.590;2023-11-19T11:40:29;2.00;;;1.00;;
8737;SDS011;4405;49.272;8.590;2023-11-19T11:42:56;1.30;;;1.00;;
8737;SDS011;4405;49.272;8.590;2023-11-19T11:45:34;1.17;;;0.97;;
8737;SDS011;4405;49.272;8.590;2023-11-19T11:48:11;3.03;;;1.20;;
8737;SDS011;4405;49.272;8.590;2023-11-19T11:50:47;1.90;;;1.23;;
8737;SDS011;4405;49.272;8.590;2023-11-19T11:53:20;1.00;;;1.00;;
8737;SDS011;4405;49.272;8.590;2023-11-19T11:55:57;1.57;;;1.17;;
8737;SDS011;4405;49.272;8.590;2023-11-19T11:58:25;1.10;;;1.00;;
8737;SDS011;4405;49.272;8.590;2023-11-19T12:00:52;1.10;;;1.00;;
8737;SDS011;4405;49.272;8.590;2023-11-19T12:03:19;1.20;;;1.00;;
8737;SDS011;4405;49.272;8.590;2023-11-19T12:05:46;1.40;;;1.30;;
8737;SDS011;4405;49.272;8.590;2023-11-19T12:08:13;1.07;;;0.90;;
8737;SDS011;4405;49.272;8.590;2023-11-19T12:10:44;1.57;;;1.20;;
8737;SDS011;4405;49.272;8.590;2023-11-19T12:13:12;2.70;;;1.47;;
8737;SDS011;4405;49.272;8.590;2023-11-19T12:18:20;1.20;;;0.97;;
8737;SDS011;4405;49.272;8.590;2023-11-19T12:20:47;1.03;;;0.90;;
8737;SDS011;4405;49.272;8.590;2023-11-19T12:23:13;1.90;;;0.90;;
8737;SDS011;4405;49.272;8.590;2023-11-19T12:25:40;1.17;;;1.17;;
8737;SDS011;4405;49.272;8.590;2023-11-19T12:28:12;1.43;;;1.10;;
8737;SDS011;4405;49.272;8.590;2023-11-19T12:30:39;1.20;;;1.10;;
8737;SDS011;4405;49.272;8.590;2023-11-19T12:33:07;0.83;;;0.83;;
8737;SDS011;4405;49.272;8.590;2023-11-19T12:35:34;1.00;;;1.00;;
8737;SDS011;4405;49.272;8.590;2023-11-19T12:38:04;2.00;;;1.27;;
8737;SDS011;4405;49.272;8.590;2023-11-19T12:40:30;2.20;;;1.30;;
8737;SDS011;4405;49.272;8.590;2023-11-19T12:42:57;2.53;;;1.20;;
8737;SDS011;4405;49.272;8.590;2023-11-19T12:45:27;1.20;;;1.07;;
8737;SDS011;4405;49.272;8.590;2023-11-19T12:48:04;2.20;;;1.10;;
8737;SDS011;4405;49.272;8.590;2023-11-19T12:50:31;2.00;;;1.10;;
8737;SDS011;4405;49.272;8.590;2023-11-19T12:53:16;1.87;;;0.83;;
8737;SDS011;4405;49.272;8.590;2023-11-19T12:55:42;3.13;;;1.10;;
8737;SDS011;4405;49.272;8.590;2023-11-19T12:58:08;3.03;;;1.20;;
8737;SDS011;4405;49.272;8.590;2023-11-19T13:00:36;1.07;;;0.97;;
8737;SDS011;4405;49.272;8.590;2023-11-19T13:03:02;1.03;;;0.77;;
8737;SDS011;4405;49.272;8.590;2023-11-19T13:05:29;2.20;;;1.00;;
8737;SDS011;4405;49.272;8.590;2023-11-19T13:07:58;3.80;;;1.13;;
8737;SDS011;4405;49.272;8.590;2023-11-19T13:10:24;3.23;;;0.97;;
8737;SDS011;4405;49.272;8.590;2023-11-19T13:12:59;1.53;;;1.20;;
8737;SDS011;4405;49.272;8.590;2023-11-19T13:15:26;1.53;;;1.00;;
8737;SDS011;4405;49.272;8.590;2023-11-19T13:17:53;1.43;;;1.00;;
8737;SDS011;4405;49.272;8.590;2023-11-19T13:20:20;1.80;;;1.00;;
8737;SDS011;4405;49.272;8.590;2023-11-19T13:22:56;1.20;;;1.10;;
8737;SDS011;4405;49.272;8.590;2023-11-19T13:25:23;1.20;;;1.07;;
8737;SDS011;4405;49.272;8.590;2023-11-19T13:27:49;3.13;;;1.20;;
8737;SDS011;4405;49.272;8.590;2023-11-19T13:30:16;1.73;;;1.00;;
8737;SDS011;4405;49.272;8.590;2023-11-19T13:32:42;1.87;;;1.10;;
8737;SDS011;4405;49.272;8.590;2023-11-19T13:35:11;1.30;;;1.30;;
8737;SDS011;4405;49.272;8.590;2023-11-19T13:37:37;2.57;;;1.00;;
8737;SDS011;4405;49.272;8.590;2023-11-19T13:40:04;1.73;;;1.20;;
8737;SDS011;4405;49.272;8.590;2023-11-19T13:42:31;2.83;;;1.00;;
8737;SDS011;4405;49.272;8.590;2023-11-19T13:44:57;1.80;;;0.90;;
8737;SDS011;4405;49.272;8.590;2023-11-19T13:47:23;1.00;;;0.90;;
8737;SDS011;4405;49.272;8.590;2023-11-19T13:49:50;3.77;;;1.33;;
8737;SDS011;4405;49.272;8.590;2023-11-19T13:52:19;1.00;;;1.00;;
8737;SDS011;4405;49.272;8.590;2023-11-19T13:54:45;1.20;;;0.97;;
8737;SDS011;4405;49.272;8.590;2023-11-19T13:57:11;1.70;;;0.90;;
8737;SDS011;4405;49.272;8.590;2023-11-19T13:59:39;1.87;;;1.00;;
8737;SDS011;4405;49.272;8.590;2023-11-19T14:02:05;1.60;;;1.07;;
8737;SDS011;4405;49.272;8.590;2023-11-19T14:04:32;1.07;;;1.00;;
8737;SDS011;4405;49.272;8.590;2023-11-19T14:06:58;1.27;;;1.00;;
8737;SDS011;4405;49.272;8.590;2023-11-19T14:09:26;1.50;;;0.93;;
8737;SDS011;4405;49.272;8.590;2023-11-19T14:11:54;2.40;;;1.10;;
8737;SDS011;4405;49.272;8.590;2023-11-19T14:14:20;2.53;;;1.10;;
8737;SDS011;4405;49.272;8.590;2023-11-19T14:16:46;2.27;;;1.10;;
8737;SDS011;4405;49.272;8.590;2023-11-19T14:19:13;3.60;;;1.13;;
8737;SDS011;4405;49.272;8.590;2023-11-19T14:21:39;3.87;;;1.30;;
8737;SDS011;4405;49.272;8.590;2023-11-19T14:24:06;1.80;;;1.10;;
8737;SDS011;4405;49.272;8.590;2023-11-19T14:26:34;1.67;;;0.90;;
8737;SDS011;4405;49.272;8.590;2023-11-19T14:29:00;1.77;;;1.20;;
8737;SDS011;4405;49.272;8.590;2023-11-19T14:31:27;1.30;;;1.20;;
8737;SDS011;4405;49.272;8.590;2023-11-19T14:33:53;1.37;;;1.17;;
8737;SDS011;4405;49.272;8.590;2023-11-19T14:36:20;0.97;;;0.97;;
8737;SDS011;4405;49.272;8.590;2023-11-19T14:38:46;1.33;;;1.13;;
8737;SDS011;4405;49.272;8.590;2023-11-19T14:41:13;2.00;;;1.23;;
8737;SDS011;4405;49.272;8.590;2023-11-19T14:43:41;2.33;;;1.30;;
8737;SDS011;4405;49.272;8.590;2023-11-19T14:46:07;1.30;;;0.80;;
8737;SDS011;4405;49.272;8.590;2023-11-19T14:48:34;2.83;;;1.30;;
8737;SDS011;4405;49.272;8.590;2023-11-19T14:51:00;3.07;;;1.30;;
8737;SDS011;4405;49.272;8.590;2023-11-19T14:53:28;1.30;;;1.20;;
8737;SDS011;4405;49.272;8.590;2023-11-19T14:55:54;2.40;;;1.07;;
8737;SDS011;4405;49.272;8.590;2023-11-19T14:58:21;1.53;;;1.10;;
8737;SDS011;4405;49.272;8.590;2023-11-19T15:00:49;2.10;;;1.17;;
8737;SDS011;4405;49.272;8.590;2023-11-19T15:03:15;2.43;;;1.20;;
8737;SDS011;4405;49.272;8.590;2023-11-19T15:05:44;2.00;;;1.10;;
8737;SDS011;4405;49.272;8.590;2023-11-19T15:08:11;3.40;;;1.00;;
8737;SDS011;4405;49.272;8.590;2023-11-19T15:10:37;2.93;;;1.10;;
8737;SDS011;4405;49.272;8.590;2023-11-19T15:13:03;1.43;;;1.00;;
8737;SDS011;4405;49.272;8.590;2023-11-19T15:15:30;1.70;;;1.10;;
8737;SDS011;4405;49.272;8.590;2023-11-19T15:17:57;1.67;;;1.27;;
8737;SDS011;4405;49.272;8.590;2023-11-19T15:20:24;2.03;;;0.90;;